sensor_id;sensor_type;location;lat;lon;timestamp;pressure;altitude;pressure_sealevel;temperature;humidity
57050;BME280;42935;50.966;16.992;2024-02-26T00:02:00;100435.48;;;0.74;100.00
57050;BME280;42935;50.966;16.992;2024-02-26T00:05:29;100433.00;;;0.49;100.00
57050;BME280;42935;50.966;16.992;2024-02-26T00:08:59;100442.32;;;0.56;100.00
57050;BME280;42935;50.966;16.992;2024-02-26T00:12:35;100436.57;;;0.57;100.00
57050;BME280;42935;50.966;16.992;2024-02-26T00:15:59;100444.55;;;0.39;100.00
57050;BME280;42935;50.966;16.992;2024-02-26T00:19:22;100444.16;;;0.64;100.00
57050;BME280;42935;50.966;16.992;2024-02-26T00:22:43;100429.20;;;0.61;100.00
57050;BME280;42935;50.966;16.992;2024-02-26T00:26:08;100438.37;;;0.75;100.00
57050;BME280;42935;50.966;16.992;2024-02-26T00:29:36;100438.72;;;0.30;100.00
57050;BME280;42935;50.966;16.992;2024-02-26T00:33:04;100432.47;;;0.58;100.00
57050;BME280;42935;50.966;16.992;2024-02-26T00:36:35;100426.76;;;0.69;100.00
57050;BME280;42935;50.966;16.992;2024-02-26T00:39:57;100434.78;;;0.68;100.00
57050;BME280;42935;50.966;16.992;2024-02-26T00:43:19;100432.90;;;0.52;100.00
57050;BME280;42935;50.966;16.992;2024-02-26T00:46:44;100425.02;;;0.45;100.00
57050;BME280;42935;50.966;16.992;2024-02-26T00:50:06;100437.63;;;0.38;100.00
57050;BME280;42935;50.966;16.992;2024-02-26T00:54:02;100437.31;;;0.17;100.00
57050;BME280;42935;50.966;16.992;2024-02-26T00:57:22;100424.16;;;0.39;100.00
57050;BME280;42935;50.966;16.992;2024-02-26T01:00:43;100435.35;;;0.18;100.00
57050;BME280;42935;50.966;16.992;2024-02-26T01:04:04;100411.93;;;0.33;100.00
57050;BME280;42935;50.966;16.992;2024-02-26T01:07:23;100416.81;;;0.32;100.00
57050;BME280;42935;50.966;16.992;2024-02-26T01:10:44;100412.25;;;0.49;100.00
57050;BME280;42935;50.966;16.992;2024-02-26T01:14:09;100420.05;;;0.49;100.00
57050;BME280;42935;50.966;16.992;2024-02-26T01:17:37;100408.50;;;0.50;100.00
57050;BME280;42935;50.966;16.992;2024-02-26T01:21:04;100382.86;;;-0.10;100.00
57050;BME280;42935;50.966;16.992;2024-02-26T01:24:39;100410.60;;;0.36;100.00
57050;BME280;42935;50.966;16.992;2024-02-26T01:28:08;100401.40;;;0.44;100.00
57050;BME280;42935;50.966;16.992;2024-02-26T01:31:27;100408.51;;;0.61;100.00
57050;BME280;42935;50.966;16.992;2024-02-26T01:34:50;100375.22;;;0.24;100.00
57050;BME280;42935;50.966;16.992;2024-02-26T01:38:12;100403.27;;;0.35;100.00
57050;BME280;42935;50.966;16.992;2024-02-26T01:41:33;100393.88;;;0.12;100.00
57050;BME280;42935;50.966;16.992;2024-02-26T01:44:51;100408.52;;;0.10;100.00
57050;BME280;42935;50.966;16.992;2024-02-26T01:48:11;100408.17;;;-0.45;100.00
57050;BME280;42935;50.966;16.992;2024-02-26T01:51:35;100400.98;;;-0.34;100.00
57050;BME280;42935;50.966;16.992;2024-02-26T01:55:01;100411.98;;;-0.13;100.00
57050;BME280;42935;50.966;16.992;2024-02-26T01:58:20;100401.33;;;0.10;100.00
57050;BME280;42935;50.966;16.992;2024-02-26T02:01:44;100386.17;;;0.13;100.00
57050;BME280;42935;50.966;16.992;2024-02-26T02:05:07;100392.37;;;0.01;100.00
57050;BME280;42935;50.966;16.992;2024-02-26T02:08:38;100396.12;;;0.20;100.00
57050;BME280;42935;50.966;16.992;2024-02-26T02:12:02;100383.56;;;0.18;100.00
57050;BME280;42935;50.966;16.992;2024-02-26T02:15:24;100401.43;;;0.10;100.00
57050;BME280;42935;50.966;16.992;2024-02-26T02:18:49;100401.18;;;0.22;100.00
57050;BME280;42935;50.966;16.992;2024-02-26T02:22:10;100392.84;;;0.16;100.00
57050;BME280;42935;50.966;16.992;2024-02-26T02:25:38;100376.91;;;0.07;100.00
57050;BME280;42935;50.966;16.992;2024-02-26T02:28:59;100392.23;;;0.44;100.00
57050;BME280;42935;50.966;16.992;2024-02-26T02:32:21;100394.04;;;0.44;100.00
57050;BME280;42935;50.966;16.992;2024-02-26T02:35:43;100395.47;;;0.38;100.00
57050;BME280;42935;50.966;16.992;2024-02-26T02:39:03;100393.33;;;0.46;100.00
57050;BME280;42935;50.966;16.992;2024-02-26T02:42:21;100387.37;;;0.41;100.00
57050;BME280;42935;50.966;16.992;2024-02-26T02:45:46;100392.38;;;0.53;100.00
57050;BME280;42935;50.966;16.992;2024-02-26T02:49:09;100392.45;;;0.29;100.00
57050;BME280;42935;50.966;16.992;2024-02-26T02:53:08;100387.50;;;0.43;100.00
57050;BME280;42935;50.966;16.992;2024-02-26T02:56:28;100388.92;;;0.28;100.00
57050;BME280;42935;50.966;16.992;2024-02-26T02:59:50;100373.99;;;0.23;100.00
57050;BME280;42935;50.966;16.992;2024-02-26T03:03:15;100376.21;;;0.04;100.00
57050;BME280;42935;50.966;16.992;2024-02-26T03:06:30;100378.06;;;0.12;100.00
57050;BME280;42935;50.966;16.992;2024-02-26T03:09:55;100371.75;;;-0.09;100.00
57050;BME280;42935;50.966;16.992;2024-02-26T03:13:19;100391.24;;;-0.12;100.00
57050;BME280;42935;50.966;16.992;2024-02-26T03:16:38;100392.68;;;-0.11;100.00
57050;BME280;42935;50.966;16.992;2024-02-26T03:20:04;100384.48;;;-0.37;100.00
57050;BME280;42935;50.966;16.992;2024-02-26T03:23:26;100392.22;;;-0.11;100.00
57050;BME280;42935;50.966;16.992;2024-02-26T03:26:50;100390.52;;;-0.02;100.00
57050;BME280;42935;50.966;16.992;2024-02-26T03:30:19;100381.72;;;0.12;100.00
57050;BME280;42935;50.966;16.992;2024-02-26T03:33:43;100385.45;;;0.30;100.00
57050;BME280;42935;50.966;16.992;2024-02-26T03:37:04;100376.78;;;0.25;100.00
57050;BME280;42935;50.966;16.992;2024-02-26T03:40:26;100384.25;;;0.30;100.00
57050;BME280;42935;50.966;16.992;2024-02-26T03:43:47;100372.61;;;0.26;100.00
57050;BME280;42935;50.966;16.992;2024-02-26T03:47:16;100369.77;;;0.15;100.00
57050;BME280;42935;50.966;16.992;2024-02-26T03:50:40;100384.16;;;0.28;100.00
57050;BME280;42935;50.966;16.992;2024-02-26T03:54:01;100384.62;;;0.29;100.00
57050;BME280;42935;50.966;16.992;2024-02-26T03:57:23;100386.55;;;0.15;100.00
57050;BME280;42935;50.966;16.992;2024-02-26T04:00:44;100380.27;;;0.22;100.00
57050;BME280;42935;50.966;16.992;2024-02-26T04:04:04;100363.09;;;0.08;100.00
57050;BME280;42935;50.966;16.992;2024-02-26T04:07:24;100381.70;;;0.16;100.00
57050;BME280;42935;50.966;16.992;2024-02-26T04:10:50;100373.53;;;0.03;100.00
57050;BME280;42935;50.966;16.992;2024-02-26T04:14:12;100379.72;;;0.15;100.00
57050;BME280;42935;50.966;16.992;2024-02-26T04:17:33;100385.74;;;0.04;100.00
57050;BME280;42935;50.966;16.992;2024-02-26T04:20:53;100388.28;;;-0.23;100.00
57050;BME280;42935;50.966;16.992;2024-02-26T04:24:17;100385.16;;;-0.04;100.00
57050;BME280;42935;50.966;16.992;2024-02-26T04:28:08;100383.79;;;-0.14;100.00
57050;BME280;42935;50.966;16.992;2024-02-26T04:31:28;100358.22;;;-0.43;100.00
57050;BME280;42935;50.966;16.992;2024-02-26T04:34:52;100385.01;;;-0.25;100.00
57050;BME280;42935;50.966;16.992;2024-02-26T04:38:17;100400.37;;;-0.14;100.00
57050;BME280;42935;50.966;16.992;2024-02-26T04:41:39;100384.11;;;-0.47;100.00
57050;BME280;42935;50.966;16.992;2024-02-26T04:44:58;100378.22;;;-0.61;100.00
57050;BME280;42935;50.966;16.992;2024-02-26T04:48:21;100400.42;;;-0.31;100.00
57050;BME280;42935;50.966;16.992;2024-02-26T04:51:43;100405.44;;;-0.29;100.00
57050;BME280;42935;50.966;16.992;2024-02-26T04:55:05;100406.80;;;-0.45;100.00
57050;BME280;42935;50.966;16.992;2024-02-26T04:58:30;100399.84;;;-0.62;100.00
57050;BME280;42935;50.966;16.992;2024-02-26T05:01:57;100386.78;;;-0.50;100.00
57050;BME280;42935;50.966;16.992;2024-02-26T05:05:15;100390.78;;;-0.66;100.00
57050;BME280;42935;50.966;16.992;2024-02-26T05:08:29;100395.73;;;-0.46;100.00
57050;BME280;42935;50.966;16.992;2024-02-26T05:11:50;100405.48;;;-0.36;100.00
57050;BME280;42935;50.966;16.992;2024-02-26T05:15:23;100403.41;;;-0.72;100.00
57050;BME280;42935;50.966;16.992;2024-02-26T05:18:39;100401.86;;;-0.45;100.00
57050;BME280;42935;50.966;16.992;2024-02-26T05:22:04;100395.11;;;-0.74;100.00
57050;BME280;42935;50.966;16.992;2024-02-26T05:25:28;100397.07;;;-0.76;100.00
57050;BME280;42935;50.966;16.992;2024-02-26T05:28:50;100399.77;;;-0.53;100.00
57050;BME280;42935;50.966;16.992;2024-02-26T05:32:18;100404.55;;;-0.53;100.00
57050;BME280;42935;50.966;16.992;2024-02-26T05:35:47;100393.07;;;-0.62;100.00
57050;BME280;42935;50.966;16.992;2024-02-26T05:39:05;100388.63;;;-0.52;100.00
57050;BME280;42935;50.966;16.992;2024-02-26T05:42:34;100403.24;;;-0.66;100.00
57050;BME280;42935;50.966;16.992;2024-02-26T05:46:02;100401.09;;;-0.51;100.00
57050;BME280;42935;50.966;16.992;2024-02-26T05:49:31;100413.19;;;-0.53;100.00
57050;BME280;42935;50.966;16.992;2024-02-26T05:52:57;100404.88;;;-0.61;100.00
57050;BME280;42935;50.966;16.992;2024-02-26T05:56:24;100414.95;;;-0.76;100.00
57050;BME280;42935;50.966;16.992;2024-02-26T05:59:49;100417.91;;;-0.78;100.00
57050;BME280;42935;50.966;16.992;2024-02-26T06:03:12;100420.50;;;-0.50;100.00
57050;BME280;42935;50.966;16.992;2024-02-26T06:06:33;100420.73;;;-0.46;100.00
57050;BME280;42935;50.966;16.992;2024-02-26T06:10:01;100413.84;;;-0.41;100.00
57050;BME280;42935;50.966;16.992;2024-02-26T06:13:27;100418.12;;;-0.46;100.00
57050;BME280;42935;50.966;16.992;2024-02-26T06:16:52;100418.31;;;-0.68;100.00
57050;BME280;42935;50.966;16.992;2024-02-26T06:20:13;100412.27;;;-0.64;100.00
57050;BME280;42935;50.966;16.992;2024-02-26T06:23:34;100420.99;;;-0.43;100.00
57050;BME280;42935;50.966;16.992;2024-02-26T06:27:00;100420.06;;;-0.35;100.00
57050;BME280;42935;50.966;16.992;2024-02-26T06:30:25;100401.68;;;-0.24;100.00
57050;BME280;42935;50.966;16.992;2024-02-26T06:33:46;100424.92;;;-0.12;100.00
57050;BME280;42935;50.966;16.992;2024-02-26T06:37:06;100428.74;;;0.05;100.00
57050;BME280;42935;50.966;16.992;2024-02-26T06:40:27;100427.71;;;0.29;100.00
57050;BME280;42935;50.966;16.992;2024-02-26T06:43:48;100405.15;;;0.06;100.00
57050;BME280;42935;50.966;16.992;2024-02-26T06:47:20;100436.31;;;0.28;100.00
57050;BME280;42935;50.966;16.992;2024-02-26T06:50:50;100434.66;;;0.36;100.00
57050;BME280;42935;50.966;16.992;2024-02-26T06:54:11;100426.40;;;0.36;100.00
57050;BME280;42935;50.966;16.992;2024-02-26T06:57:31;100423.02;;;0.66;100.00
57050;BME280;42935;50.966;16.992;2024-02-26T07:00:49;100428.91;;;0.74;100.00
57050;BME280;42935;50.966;16.992;2024-02-26T07:04:09;100432.95;;;0.60;100.00
57050;BME280;42935;50.966;16.992;2024-02-26T07:08:10;100419.10;;;0.65;100.00
57050;BME280;42935;50.966;16.992;2024-02-26T07:11:35;100445.44;;;0.88;100.00
57050;BME280;42935;50.966;16.992;2024-02-26T07:15:03;100437.59;;;0.91;100.00
57050;BME280;42935;50.966;16.992;2024-02-26T07:18:30;100446.84;;;1.06;100.00
57050;BME280;42935;50.966;16.992;2024-02-26T07:21:53;100439.30;;;0.94;100.00
57050;BME280;42935;50.966;16.992;2024-02-26T07:25:14;100438.04;;;1.16;100.00
57050;BME280;42935;50.966;16.992;2024-02-26T07:28:36;100433.55;;;1.13;100.00
57050;BME280;42935;50.966;16.992;2024-02-26T07:31:54;100442.38;;;1.25;100.00
57050;BME280;42935;50.966;16.992;2024-02-26T07:35:52;100442.20;;;1.46;100.00
57050;BME280;42935;50.966;16.992;2024-02-26T07:39:13;100436.99;;;1.94;100.00
57050;BME280;42935;50.966;16.992;2024-02-26T07:42:34;100440.63;;;1.94;100.00
57050;BME280;42935;50.966;16.992;2024-02-26T07:45:52;100430.54;;;2.17;100.00
57050;BME280;42935;50.966;16.992;2024-02-26T07:49:16;100427.16;;;2.30;100.00
57050;BME280;42935;50.966;16.992;2024-02-26T07:52:34;100433.02;;;2.66;100.00
57050;BME280;42935;50.966;16.992;2024-02-26T07:56:01;100432.71;;;2.90;100.00
57050;BME280;42935;50.966;16.992;2024-02-26T07:59:27;100437.66;;;3.14;100.00
57050;BME280;42935;50.966;16.992;2024-02-26T08:02:48;100438.81;;;3.50;100.00
57050;BME280;42935;50.966;16.992;2024-02-26T08:06:10;100435.16;;;3.68;100.00
57050;BME280;42935;50.966;16.992;2024-02-26T08:09:35;100441.91;;;3.89;100.00
57050;BME280;42935;50.966;16.992;2024-02-26T08:13:03;100431.84;;;3.98;100.00
57050;BME280;42935;50.966;16.992;2024-02-26T08:16:27;100438.71;;;4.25;100.00
57050;BME280;42935;50.966;16.992;2024-02-26T08:19:48;100439.97;;;4.45;100.00
57050;BME280;42935;50.966;16.992;2024-02-26T08:23:04;100438.02;;;4.67;100.00
57050;BME280;42935;50.966;16.992;2024-02-26T08:26:31;100432.59;;;4.89;100.00
57050;BME280;42935;50.966;16.992;2024-02-26T08:29:57;100367.76;;;4.71;100.00
57050;BME280;42935;50.966;16.992;2024-02-26T08:33:23;100417.99;;;5.37;100.00
57050;BME280;42935;50.966;16.992;2024-02-26T08:36:41;100428.13;;;5.66;100.00
57050;BME280;42935;50.966;16.992;2024-02-26T08:40:15;100421.31;;;5.83;100.00
57050;BME280;42935;50.966;16.992;2024-02-26T08:43:39;100426.11;;;6.18;100.00
57050;BME280;42935;50.966;16.992;2024-02-26T08:47:07;100424.06;;;6.33;100.00
57050;BME280;42935;50.966;16.992;2024-02-26T08:50:31;100410.45;;;6.45;100.00
57050;BME280;42935;50.966;16.992;2024-02-26T08:54:03;100418.55;;;6.94;100.00
57050;BME280;42935;50.966;16.992;2024-02-26T08:57:23;100421.92;;;7.09;100.00
57050;BME280;42935;50.966;16.992;2024-02-26T09:25:54;100411.48;;;8.27;100.00
57050;BME280;42935;50.966;16.992;2024-02-26T09:29:23;100402.00;;;8.54;100.00
57050;BME280;42935;50.966;16.992;2024-02-26T09:32:46;100405.89;;;8.69;100.00
57050;BME280;42935;50.966;16.992;2024-02-26T09:36:08;100411.69;;;9.03;100.00
57050;BME280;42935;50.966;16.992;2024-02-26T09:39:28;100403.55;;;8.97;100.00
57050;BME280;42935;50.966;16.992;2024-02-26T09:43:00;100405.31;;;9.16;100.00
57050;BME280;42935;50.966;16.992;2024-02-26T09:46:21;100411.96;;;9.10;100.00
57050;BME280;42935;50.966;16.992;2024-02-26T09:49:40;100405.20;;;9.04;100.00
57050;BME280;42935;50.966;16.992;2024-02-26T09:53:02;100391.09;;;9.33;100.00
57050;BME280;42935;50.966;16.992;2024-02-26T09:56:30;100406.63;;;9.43;100.00
57050;BME280;42935;50.966;16.992;2024-02-26T09:59:50;100405.70;;;9.52;100.00
57050;BME280;42935;50.966;16.992;2024-02-26T10:03:13;100411.03;;;9.72;100.00
57050;BME280;42935;50.966;16.992;2024-02-26T10:07:09;100403.77;;;9.81;100.00
57050;BME280;42935;50.966;16.992;2024-02-26T10:10:29;100416.14;;;10.13;100.00
57050;BME280;42935;50.966;16.992;2024-02-26T10:13:51;100365.64;;;10.12;100.00
57050;BME280;42935;50.966;16.992;2024-02-26T10:17:09;100404.62;;;10.82;100.00
57050;BME280;42935;50.966;16.992;2024-02-26T10:20:34;100417.43;;;10.60;93.20
57050;BME280;42935;50.966;16.992;2024-02-26T10:23:55;100414.95;;;10.54;93.45
57050;BME280;42935;50.966;16.992;2024-02-26T10:27:16;100408.61;;;10.70;95.17
57050;BME280;42935;50.966;16.992;2024-02-26T10:30:37;100412.56;;;10.74;93.85
57050;BME280;42935;50.966;16.992;2024-02-26T10:34:01;100407.52;;;10.79;93.68
57050;BME280;42935;50.966;16.992;2024-02-26T10:37:23;100407.22;;;11.02;91.15
57050;BME280;42935;50.966;16.992;2024-02-26T10:40:44;100402.66;;;10.90;88.83
57050;BME280;42935;50.966;16.992;2024-02-26T10:44:04;100409.20;;;11.06;90.60
57050;BME280;42935;50.966;16.992;2024-02-26T10:47:21;100393.10;;;11.09;88.47
57050;BME280;42935;50.966;16.992;2024-02-26T10:50:42;100399.40;;;11.25;89.15
57050;BME280;42935;50.966;16.992;2024-02-26T10:54:06;100395.80;;;11.42;92.03
57050;BME280;42935;50.966;16.992;2024-02-26T10:57:40;100379.21;;;11.60;86.25
57050;BME280;42935;50.966;16.992;2024-02-26T11:01:01;100382.42;;;11.72;85.86
57050;BME280;42935;50.966;16.992;2024-02-26T11:04:20;100382.18;;;11.73;86.86
57050;BME280;42935;50.966;16.992;2024-02-26T11:07:44;100377.65;;;11.98;85.63
57050;BME280;42935;50.966;16.992;2024-02-26T11:11:05;100361.59;;;11.80;82.80
57050;BME280;42935;50.966;16.992;2024-02-26T11:14:23;100368.71;;;11.93;80.67
57050;BME280;42935;50.966;16.992;2024-02-26T11:17:46;100380.99;;;12.19;82.34
57050;BME280;42935;50.966;16.992;2024-02-26T11:21:53;100359.04;;;12.09;80.51
57050;BME280;42935;50.966;16.992;2024-02-26T11:25:31;100363.51;;;12.22;82.38
57050;BME280;42935;50.966;16.992;2024-02-26T11:29:23;100365.88;;;12.39;80.61
57050;BME280;42935;50.966;16.992;2024-02-26T11:32:47;100358.17;;;12.45;80.32
57050;BME280;42935;50.966;16.992;2024-02-26T11:36:11;100356.95;;;12.31;81.36
57050;BME280;42935;50.966;16.992;2024-02-26T11:39:32;100351.27;;;12.23;79.46
57050;BME280;42935;50.966;16.992;2024-02-26T11:42:53;100353.41;;;12.51;81.86
57050;BME280;42935;50.966;16.992;2024-02-26T11:46:42;100353.12;;;12.50;79.89
57050;BME280;42935;50.966;16.992;2024-02-26T11:49:59;100348.19;;;12.83;80.44
57050;BME280;42935;50.966;16.992;2024-02-26T11:53:25;100351.56;;;12.82;77.94
57050;BME280;42935;50.966;16.992;2024-02-26T11:56:52;100349.37;;;12.85;78.10
57050;BME280;42935;50.966;16.992;2024-02-26T12:00:15;100340.21;;;12.78;78.95
57050;BME280;42935;50.966;16.992;2024-02-26T12:03:41;100351.11;;;13.08;78.33
57050;BME280;42935;50.966;16.992;2024-02-26T12:07:12;100341.17;;;13.03;76.16
57050;BME280;42935;50.966;16.992;2024-02-26T12:10:32;100351.09;;;12.84;75.80
57050;BME280;42935;50.966;16.992;2024-02-26T12:13:59;100345.96;;;12.67;73.92
57050;BME280;42935;50.966;16.992;2024-02-26T12:17:24;100356.54;;;12.62;75.52
57050;BME280;42935;50.966;16.992;2024-02-26T12:20:42;100354.79;;;12.98;77.01
57050;BME280;42935;50.966;16.992;2024-02-26T12:24:14;100354.12;;;12.95;74.43
57050;BME280;42935;50.966;16.992;2024-02-26T12:27:33;100343.59;;;12.57;74.92
57050;BME280;42935;50.966;16.992;2024-02-26T12:30:53;100345.87;;;12.76;76.76
57050;BME280;42935;50.966;16.992;2024-02-26T12:34:14;100345.80;;;12.94;74.71
57050;BME280;42935;50.966;16.992;2024-02-26T12:37:36;100347.02;;;13.09;74.05
57050;BME280;42935;50.966;16.992;2024-02-26T12:40:55;100341.80;;;13.02;74.05
57050;BME280;42935;50.966;16.992;2024-02-26T12:44:17;100348.26;;;13.16;73.38
57050;BME280;42935;50.966;16.992;2024-02-26T12:47:44;100343.40;;;13.41;72.45
57050;BME280;42935;50.966;16.992;2024-02-26T12:51:09;100341.20;;;13.65;73.90
57050;BME280;42935;50.966;16.992;2024-02-26T12:54:33;100340.82;;;13.56;72.69
57050;BME280;42935;50.966;16.992;2024-02-26T12:58:34;100341.14;;;13.19;73.96
57050;BME280;42935;50.966;16.992;2024-02-26T13:01:57;100335.20;;;13.29;74.61
57050;BME280;42935;50.966;16.992;2024-02-26T13:05:19;100343.83;;;13.35;72.82
57050;BME280;42935;50.966;16.992;2024-02-26T13:08:40;100352.72;;;13.19;72.85
57050;BME280;42935;50.966;16.992;2024-02-26T13:12:29;100347.98;;;13.00;74.27
57050;BME280;42935;50.966;16.992;2024-02-26T13:15:50;100343.18;;;12.86;74.38
57050;BME280;42935;50.966;16.992;2024-02-26T13:19:14;100350.59;;;12.97;76.97
57050;BME280;42935;50.966;16.992;2024-02-26T13:22:35;100346.72;;;12.90;73.75
57050;BME280;42935;50.966;16.992;2024-02-26T13:25:56;100354.39;;;12.87;74.26
57050;BME280;42935;50.966;16.992;2024-02-26T13:29:21;100346.30;;;12.60;76.49
57050;BME280;42935;50.966;16.992;2024-02-26T13:32:41;100338.76;;;12.68;76.95
57050;BME280;42935;50.966;16.992;2024-02-26T13:36:04;100352.23;;;12.58;77.13
57050;BME280;42935;50.966;16.992;2024-02-26T13:39:27;100349.83;;;12.40;76.98
57050;BME280;42935;50.966;16.992;2024-02-26T13:42:53;100348.91;;;12.36;77.57
57050;BME280;42935;50.966;16.992;2024-02-26T13:46:15;100349.12;;;12.22;79.35
57050;BME280;42935;50.966;16.992;2024-02-26T13:49:34;100358.63;;;12.27;79.01
57050;BME280;42935;50.966;16.992;2024-02-26T13:52:55;100357.05;;;12.34;80.74
57050;BME280;42935;50.966;16.992;2024-02-26T13:56:48;100348.43;;;12.66;79.71
57050;BME280;42935;50.966;16.992;2024-02-26T14:00:24;100348.79;;;12.50;78.64
57050;BME280;42935;50.966;16.992;2024-02-26T14:03:42;100356.97;;;12.23;78.55
57050;BME280;42935;50.966;16.992;2024-02-26T14:07:08;100360.96;;;12.30;80.41
57050;BME280;42935;50.966;16.992;2024-02-26T14:10:28;100357.38;;;12.09;80.64
57050;BME280;42935;50.966;16.992;2024-02-26T14:13:51;100344.34;;;12.06;82.05
57050;BME280;42935;50.966;16.992;2024-02-26T14:17:13;100344.20;;;11.95;82.65
57050;BME280;42935;50.966;16.992;2024-02-26T14:20:30;100352.94;;;11.93;85.00
57050;BME280;42935;50.966;16.992;2024-02-26T14:23:46;100355.87;;;11.81;85.93
57050;BME280;42935;50.966;16.992;2024-02-26T14:27:04;100360.70;;;11.67;86.04
57050;BME280;42935;50.966;16.992;2024-02-26T14:30:26;100359.49;;;11.63;87.92
57050;BME280;42935;50.966;16.992;2024-02-26T14:33:48;100344.20;;;11.71;87.64
57050;BME280;42935;50.966;16.992;2024-02-26T14:37:09;100360.73;;;11.56;88.69
57050;BME280;42935;50.966;16.992;2024-02-26T14:40:34;100367.54;;;11.45;91.09
57050;BME280;42935;50.966;16.992;2024-02-26T14:44:04;100362.02;;;11.44;91.70
57050;BME280;42935;50.966;16.992;2024-02-26T14:47:23;100357.45;;;11.51;90.32
57050;BME280;42935;50.966;16.992;2024-02-26T14:50:47;100356.83;;;11.54;89.61
57050;BME280;42935;50.966;16.992;2024-02-26T14:54:08;100366.16;;;11.35;90.64
57050;BME280;42935;50.966;16.992;2024-02-26T14:57:28;100363.01;;;11.45;89.41
57050;BME280;42935;50.966;16.992;2024-02-26T15:00:49;100368.59;;;11.49;88.60
57050;BME280;42935;50.966;16.992;2024-02-26T15:04:10;100362.66;;;11.52;88.13
57050;BME280;42935;50.966;16.992;2024-02-26T15:07:31;100365.05;;;11.32;89.60
57050;BME280;42935;50.966;16.992;2024-02-26T15:11:03;100370.62;;;11.41;90.05
57050;BME280;42935;50.966;16.992;2024-02-26T15:14:29;100374.09;;;11.42;90.76
57050;BME280;42935;50.966;16.992;2024-02-26T15:17:50;100370.03;;;11.49;89.76
57050;BME280;42935;50.966;16.992;2024-02-26T15:21:11;100378.74;;;11.64;89.29
57050;BME280;42935;50.966;16.992;2024-02-26T15:24:34;100375.63;;;11.37;91.97
57050;BME280;42935;50.966;16.992;2024-02-26T15:27:54;100373.49;;;11.44;92.38
57050;BME280;42935;50.966;16.992;2024-02-26T15:31:19;100386.95;;;11.70;91.14
57050;BME280;42935;50.966;16.992;2024-02-26T15:34:41;100389.30;;;11.49;92.29
57050;BME280;42935;50.966;16.992;2024-02-26T15:38:04;100391.34;;;11.38;93.89
57050;BME280;42935;50.966;16.992;2024-02-26T15:41:25;100398.59;;;11.27;94.91
57050;BME280;42935;50.966;16.992;2024-02-26T15:44:46;100397.80;;;11.36;94.10
57050;BME280;42935;50.966;16.992;2024-02-26T15:48:08;100395.11;;;11.48;92.31
57050;BME280;42935;50.966;16.992;2024-02-26T15:52:00;100397.70;;;11.47;91.89
57050;BME280;42935;50.966;16.992;2024-02-26T15:55:27;100413.99;;;11.35;95.49
57050;BME280;42935;50.966;16.992;2024-02-26T15:58:46;100416.36;;;11.24;98.34
57050;BME280;42935;50.966;16.992;2024-02-26T16:02:07;100419.73;;;11.33;96.38
57050;BME280;42935;50.966;16.992;2024-02-26T16:05:29;100405.15;;;11.21;95.78
57050;BME280;42935;50.966;16.992;2024-02-26T16:08:47;100410.41;;;11.13;96.63
57050;BME280;42935;50.966;16.992;2024-02-26T16:12:17;100423.56;;;11.20;96.66
57050;BME280;42935;50.966;16.992;2024-02-26T16:15:44;100426.98;;;11.17;96.91
57050;BME280;42935;50.966;16.992;2024-02-26T16:19:11;100419.39;;;10.71;100.00
57050;BME280;42935;50.966;16.992;2024-02-26T16:22:35;100433.27;;;10.78;100.00
57050;BME280;42935;50.966;16.992;2024-02-26T16:25:55;100437.11;;;10.69;100.00
57050;BME280;42935;50.966;16.992;2024-02-26T16:29:20;100442.23;;;10.67;100.00
57050;BME280;42935;50.966;16.992;2024-02-26T16:32:47;100448.70;;;10.50;100.00
57050;BME280;42935;50.966;16.992;2024-02-26T16:36:09;100454.99;;;10.46;100.00
57050;BME280;42935;50.966;16.992;2024-02-26T16:39:36;100454.55;;;10.23;100.00
57050;BME280;42935;50.966;16.992;2024-02-26T16:43:05;100450.64;;;10.24;100.00
57050;BME280;42935;50.966;16.992;2024-02-26T16:46:34;100452.93;;;10.32;100.00
57050;BME280;42935;50.966;16.992;2024-02-26T16:50:04;100470.38;;;10.47;100.00
57050;BME280;42935;50.966;16.992;2024-02-26T16:53:33;100456.51;;;10.47;100.00
57050;BME280;42935;50.966;16.992;2024-02-26T16:56:54;100466.07;;;10.31;100.00
57050;BME280;42935;50.966;16.992;2024-02-26T17:00:18;100477.77;;;10.36;100.00
57050;BME280;42935;50.966;16.992;2024-02-26T17:03:41;100471.36;;;10.27;100.00
57050;BME280;42935;50.966;16.992;2024-02-26T17:07:02;100489.37;;;9.99;100.00
57050;BME280;42935;50.966;16.992;2024-02-26T17:10:25;100484.55;;;9.96;100.00
57050;BME280;42935;50.966;16.992;2024-02-26T17:13:46;100496.64;;;10.14;100.00
57050;BME280;42935;50.966;16.992;2024-02-26T17:17:07;100497.95;;;10.16;100.00
57050;BME280;42935;50.966;16.992;2024-02-26T17:20:28;100493.36;;;10.04;100.00
57050;BME280;42935;50.966;16.992;2024-02-26T17:23:46;100476.16;;;9.84;100.00
57050;BME280;42935;50.966;16.992;2024-02-26T17:27:08;100514.17;;;9.84;100.00
57050;BME280;42935;50.966;16.992;2024-02-26T17:30:28;100514.40;;;9.87;100.00
57050;BME280;42935;50.966;16.992;2024-02-26T17:33:52;100507.02;;;9.74;100.00
57050;BME280;42935;50.966;16.992;2024-02-26T17:37:20;100521.55;;;9.86;100.00
57050;BME280;42935;50.966;16.992;2024-02-26T17:40:42;100518.84;;;9.74;100.00
57050;BME280;42935;50.966;16.992;2024-02-26T17:44:03;100518.20;;;9.68;100.00
57050;BME280;42935;50.966;16.992;2024-02-26T17:47:26;100521.47;;;9.70;100.00
57050;BME280;42935;50.966;16.992;2024-02-26T17:50:47;100516.23;;;9.17;100.00
57050;BME280;42935;50.966;16.992;2024-02-26T17:54:12;100528.77;;;9.18;100.00
57050;BME280;42935;50.966;16.992;2024-02-26T17:57:38;100524.44;;;9.27;100.00